Time;durP1;ratioP1;P1;durP2;ratioP2;P2;SDS_P1;SDS_P2;PMS_P1;PMS_P2;Temp;Humidity;BMP_temperature;BMP_pressure;BME280_temperature;BME280_humidity;BME280_pressure;Samples;Min_cycle;Max_cycle;Signal;HPM_P1;HPM_P2
2021/12/02 00:00:13;;;;;;;13.02;1.58;;;4.00;99.90;;;;;;6175943;23;20027;-83
2021/12/02 00:02:39;;;;;;;12.82;1.60;;;3.90;99.90;;;;;;6151178;23;20013;-78
2021/12/02 00:05:06;;;;;;;13.68;1.70;;;3.90;99.90;;;;;;6150633;23;20139;-78
2021/12/02 00:07:32;;;;;;;9.32;1.40;;;3.80;99.90;;;;;;6151272;23;20017;-81
2021/12/02 00:09:58;;;;;;;6.97;1.40;;;3.80;99.90;;;;;;6151370;23;20018;-81
2021/12/02 00:12:24;;;;;;;9.52;1.25;;;3.70;99.90;;;;;;6151483;23;20104;-83
2021/12/02 00:14:51;;;;;;;13.05;1.33;;;3.60;99.90;;;;;;6176074;23;20021;-82
2021/12/02 00:17:27;;;;;;;11.10;1.67;;;3.50;99.90;;;;;;6176459;23;20025;-79
2021/12/02 00:23:10;;;;;;;13.87;1.93;;;3.30;99.90;;;;;;6153973;23;20053;-84
2021/12/02 00:25:36;;;;;;;16.60;1.75;;;3.20;99.90;;;;;;6151448;23;20449;-79
2021/12/02 00:28:04;;;;;;;14.25;1.73;;;3.10;99.90;;;;;;6130302;23;20084;-80
2021/12/02 00:30:31;;;;;;;13.00;1.67;;;3.10;99.90;;;;;;6240717;23;20018;-82
2021/12/02 00:32:59;;;;;;;13.70;1.98;;;3.00;99.90;;;;;;6242541;23;20358;-79
2021/12/02 00:35:25;;;;;;;13.77;1.65;;;3.00;99.90;;;;;;6242181;23;20039;-83
2021/12/02 00:37:52;;;;;;;11.23;1.95;;;2.90;99.90;;;;;;6217265;23;20070;-87
2021/12/02 00:40:18;;;;;;;12.25;1.30;;;2.90;99.90;;;;;;6217539;23;20110;-83
2021/12/02 00:42:44;;;;;;;11.55;2.50;;;2.90;99.90;;;;;;6242516;23;20020;-79
2021/12/02 00:45:10;;;;;;;12.13;1.50;;;3.00;99.90;;;;;;6217259;23;20012;-80
2021/12/02 00:47:37;;;;;;;14.18;2.05;;;3.00;99.90;;;;;;6217464;23;20328;-81
2021/12/02 00:50:03;;;;;;;9.95;1.30;;;3.10;99.90;;;;;;6215741;23;20012;-83
2021/12/02 00:52:30;;;;;;;12.70;1.52;;;3.20;99.90;;;;;;6242500;22;20043;-78
2021/12/02 00:54:56;;;;;;;13.80;1.60;;;3.20;99.90;;;;;;6241445;23;20012;-85
2021/12/02 00:57:23;;;;;;;7.38;1.40;;;3.30;99.90;;;;;;6217395;23;20336;-85
2021/12/02 00:59:49;;;;;;;14.63;2.03;;;3.30;99.90;;;;;;6192076;23;20027;-78
2021/12/02 01:02:16;;;;;;;10.15;1.38;;;3.30;99.90;;;;;;6215153;23;20023;-87
2021/12/02 01:04:42;;;;;;;16.60;2.05;;;3.30;99.90;;;;;;6242081;22;20070;-83
2021/12/02 01:07:08;;;;;;;9.25;1.88;;;3.30;99.90;;;;;;6241666;23;20265;-79
2021/12/02 01:09:35;;;;;;;19.88;1.73;;;3.30;99.90;;;;;;6245834;22;20102;-88
2021/12/02 01:12:02;;;;;;;4.00;0.70;;;3.30;99.90;;;;;;6221614;22;20015;-83
2021/12/02 01:14:28;;;;;;;5.95;1.13;;;3.30;99.90;;;;;;6222453;22;20007;-82
2021/12/02 01:16:55;;;;;;;3.10;0.82;;;3.40;99.90;;;;;;6247987;22;20016;-84
2021/12/02 01:19:21;;;;;;;5.53;0.65;;;3.50;99.90;;;;;;6222130;22;20023;-87
2021/12/02 01:21:49;;;;;;;9.95;1.65;;;3.70;99.90;;;;;;6221439;22;20019;-84
2021/12/02 01:24:34;;;;;;;5.28;0.90;;;3.80;99.90;;;;;;6221392;22;20023;-90
2021/12/02 01:27:05;;;;;;;8.40;0.95;;;3.80;99.90;;;;;;6246778;22;20038;-86
2021/12/02 01:29:34;;;;;;;4.00;0.70;;;3.70;99.90;;;;;;6222349;22;20019;-84
2021/12/02 01:32:06;;;;;;;7.22;0.70;;;3.60;99.90;;;;;;6222168;22;20057;-83
2021/12/02 01:34:33;;;;;;;7.22;0.70;;;3.50;99.90;;;;;;6218584;22;20019;-82
2021/12/02 01:37:15;;;;;;;9.73;0.70;;;3.50;99.90;;;;;;6221430;22;20007;-90
2021/12/02 01:39:41;;;;;;;3.75;0.77;;;3.40;99.90;;;;;;6273133;22;20454;-80
2021/12/02 01:42:14;;;;;;;4.68;0.82;;;3.40;99.90;;;;;;6247218;22;20749;-84
2021/12/02 01:44:41;;;;;;;4.97;0.90;;;3.30;99.90;;;;;;6221842;22;20022;-85
2021/12/02 01:47:14;;;;;;;5.88;0.90;;;3.30;99.90;;;;;;6248508;22;20011;-89
2021/12/02 01:49:45;;;;;;;5.78;0.57;;;3.30;99.90;;;;;;6221467;22;20063;-83
2021/12/02 01:52:12;;;;;;;12.20;1.30;;;3.30;99.90;;;;;;6222330;22;20444;-85
2021/12/02 01:54:45;;;;;;;7.18;0.90;;;3.20;99.90;;;;;;6196229;22;20019;-85
2021/12/02 01:57:26;;;;;;;16.55;1.65;;;3.30;99.90;;;;;;6247418;22;20335;-80
2021/12/02 01:59:58;;;;;;;11.52;1.27;;;3.30;99.90;;;;;;6221419;22;20431;-81
2021/12/02 02:02:24;;;;;;;7.07;0.90;;;3.30;99.90;;;;;;6247473;22;20072;-85
2021/12/02 02:04:51;;;;;;;12.45;1.50;;;3.30;99.90;;;;;;6226665;22;20374;-83
2021/12/02 02:07:23;;;;;;;6.20;1.13;;;3.20;99.90;;;;;;6227916;22;20008;-82
2021/12/02 02:09:50;;;;;;;16.08;1.38;;;3.20;99.90;;;;;;6228503;22;20138;-80
2021/12/02 02:12:16;;;;;;;11.05;1.20;;;3.20;99.90;;;;;;6230710;22;20091;-80
2021/12/02 02:14:44;;;;;;;5.30;0.73;;;3.20;99.90;;;;;;6257482;22;20089;-86
2021/12/02 02:17:26;;;;;;;10.23;1.00;;;3.10;99.90;;;;;;6229571;22;20043;-82
2021/12/02 02:19:53;;;;;;;12.48;1.52;;;3.10;99.90;;;;;;6225898;22;20088;-88
2021/12/02 02:22:22;;;;;;;14.68;1.05;;;3.20;99.90;;;;;;6222050;22;20016;-81
2021/12/02 02:24:49;;;;;;;9.68;0.90;;;3.10;99.90;;;;;;6222769;22;20100;-81
2021/12/02 02:27:15;;;;;;;10.20;1.00;;;3.10;99.90;;;;;;6221444;22;20018;-81
2021/12/02 02:29:41;;;;;;;11.25;1.00;;;3.10;99.90;;;;;;6247517;22;20011;-87
2021/12/02 02:32:07;;;;;;;6.53;1.05;;;3.00;99.90;;;;;;6247092;22;20007;-85
2021/12/02 02:34:33;;;;;;;5.47;0.90;;;3.10;99.90;;;;;;6221549;22;20022;-83
2021/12/02 02:37:03;;;;;;;7.32;1.15;;;3.00;99.90;;;;;;6221201;22;20051;-83
2021/12/02 02:39:30;;;;;;;7.60;1.00;;;3.00;99.90;;;;;;6246047;22;20485;-84
2021/12/02 02:41:58;;;;;;;11.88;1.05;;;3.00;99.90;;;;;;6221824;22;20015;-84
2021/12/02 02:44:26;;;;;;;6.93;1.00;;;3.00;99.90;;;;;;6246901;22;20022;-90
2021/12/02 02:46:53;;;;;;;7.05;1.20;;;3.00;99.90;;;;;;6246860;22;20096;-89
2021/12/02 02:49:19;;;;;;;14.43;1.10;;;3.00;99.90;;;;;;6219951;22;20088;-82
2021/12/02 02:51:46;;;;;;;7.63;0.95;;;3.00;99.90;;;;;;6220393;22;20012;-89
2021/12/02 02:54:15;;;;;;;6.15;0.90;;;3.10;99.90;;;;;;6220571;22;20011;-90
2021/12/02 02:57:03;;;;;;;11.27;1.20;;;3.10;99.90;;;;;;6245702;22;20081;-86
2021/12/02 02:59:38;;;;;;;3.05;0.47;;;3.20;99.90;;;;;;6221584;22;20091;-84
2021/12/02 03:04:53;;;;;;;4.20;0.63;;;3.30;99.90;;;;;;6271514;22;19969;-86
2021/12/02 03:07:39;;;;;;;4.93;0.57;;;3.30;99.90;;;;;;6220513;22;20007;-84
2021/12/02 03:12:41;;;;;;;1.50;0.20;;;3.20;99.90;;;;;;6271445;22;20028;-82
2021/12/02 03:17:33;;;;;;;1.45;0.32;;;3.10;99.90;;;;;;6272963;22;20031;-83
2021/12/02 03:20:00;;;;;;;1.52;0.22;;;3.00;99.90;;;;;;6223036;22;20012;-84
2021/12/02 03:22:38;;;;;;;0.77;0.25;;;3.00;99.90;;;;;;6223096;22;20047;-81
2021/12/02 03:25:06;;;;;;;0.38;0.10;;;2.90;99.90;;;;;;6223832;22;20098;-86
2021/12/02 03:27:31;;;;;;;2.45;0.35;;;2.80;99.90;;;;;;6221403;22;20379;-90
2021/12/02 03:29:57;;;;;;;1.02;0.20;;;2.70;99.90;;;;;;6274127;22;20011;-86
2021/12/02 03:32:23;;;;;;;2.45;0.10;;;2.70;99.90;;;;;;6222915;22;20011;-87
2021/12/02 03:34:49;;;;;;;3.40;0.30;;;2.60;99.90;;;;;;6223835;22;20034;-79
2021/12/02 03:37:16;;;;;;;1.52;0.15;;;2.50;99.90;;;;;;6273205;22;20016;-89
2021/12/02 03:39:43;;;;;;;2.45;0.25;;;2.40;99.90;;;;;;6222708;22;20012;-86
2021/12/02 03:42:09;;;;;;;3.05;0.30;;;2.40;99.90;;;;;;6225510;22;20015;-84
2021/12/02 03:44:36;;;;;;;1.85;0.30;;;2.30;99.90;;;;;;6226371;22;20034;-86
2021/12/02 03:47:02;;;;;;;1.95;0.30;;;2.30;99.90;;;;;;6275194;22;20033;-83
2021/12/02 03:49:28;;;;;;;0.82;0.10;;;2.20;99.90;;;;;;6248822;22;20447;-83
2021/12/02 03:51:54;;;;;;;1.20;0.10;;;2.20;99.90;;;;;;6221763;22;20008;-84
2021/12/02 03:54:20;;;;;;;1.77;0.20;;;2.20;99.90;;;;;;6273227;22;20043;-83
2021/12/02 03:56:45;;;;;;;1.35;0.15;;;3.00;99.90;;;;;;6247965;22;20004;-86
2021/12/02 03:59:12;;;;;;;2.42;0.40;;;2.60;99.90;;;;;;6248143;22;20051;-87
2021/12/02 04:01:37;;;;;;;1.02;0.20;;;2.00;99.90;;;;;;6248258;22;20453;-88
2021/12/02 04:04:03;;;;;;;3.33;0.50;;;2.00;99.90;;;;;;6248363;22;20011;-86
2021/12/02 04:06:29;;;;;;;1.90;0.35;;;2.00;99.90;;;;;;6247863;22;20108;-85
2021/12/02 04:11:40;;;;;;;3.17;0.82;;;1.90;99.90;;;;;;6273636;22;20034;-84
2021/12/02 04:16:40;;;;;;;4.40;0.60;;;1.80;99.90;;;;;;6248659;22;20442;-86
2021/12/02 04:19:08;;;;;;;7.85;0.60;;;1.80;99.90;;;;;;6248852;22;20086;-79
2021/12/02 04:21:34;;;;;;;2.05;0.40;;;1.70;99.90;;;;;;6222857;22;20095;-82
2021/12/02 04:24:01;;;;;;;3.60;0.40;;;1.70;99.90;;;;;;6248114;22;20051;-88
2021/12/02 04:26:27;;;;;;;2.47;0.40;;;1.70;99.90;;;;;;6248938;22;20117;-86
2021/12/02 04:28:53;;;;;;;4.07;0.52;;;1.70;99.90;;;;;;6222729;22;20008;-86
2021/12/02 04:31:18;;;;;;;1.80;0.60;;;1.80;99.90;;;;;;6273921;22;20407;-83
2021/12/02 04:33:44;;;;;;;2.33;0.45;;;1.80;99.90;;;;;;6223455;22;20016;-80
2021/12/02 04:36:11;;;;;;;4.95;0.70;;;1.80;99.90;;;;;;6248520;22;20089;-80
2021/12/02 04:38:37;;;;;;;6.03;0.57;;;1.80;99.90;;;;;;6222954;22;20015;-87
2021/12/02 04:41:03;;;;;;;2.85;0.50;;;1.80;99.90;;;;;;6223339;22;20321;-84
2021/12/02 04:43:28;;;;;;;4.25;0.50;;;1.90;99.90;;;;;;6222894;22;20018;-85
2021/12/02 04:45:54;;;;;;;2.90;0.40;;;2.40;99.90;;;;;;6273961;22;20016;-87
2021/12/02 04:48:21;;;;;;;3.03;0.57;;;2.00;99.90;;;;;;6248309;22;20014;-84
2021/12/02 04:50:47;;;;;;;1.65;0.30;;;2.00;99.90;;;;;;6223038;22;20029;-85
2021/12/02 04:53:13;;;;;;;3.95;0.60;;;2.10;99.90;;;;;;6247261;22;20018;-82
2021/12/02 04:55:39;;;;;;;1.65;0.80;;;2.10;99.90;;;;;;6248368;22;20047;-83
2021/12/02 04:58:05;;;;;;;5.38;0.68;;;2.20;99.90;;;;;;6247673;22;20069;-87
2021/12/02 05:00:31;;;;;;;4.60;0.63;;;2.90;99.90;;;;;;6235809;22;20066;-78
2021/12/02 05:02:58;;;;;;;2.67;0.40;;;2.20;99.90;;;;;;6262306;22;20042;-78
2021/12/02 05:05:25;;;;;;;1.17;0.32;;;2.50;99.90;;;;;;6261677;22;20016;-78
2021/12/02 05:08:04;;;;;;;2.28;0.50;;;2.20;99.90;;;;;;6229160;22;20065;-82
2021/12/02 05:10:30;;;;;;;3.13;0.82;;;2.20;99.90;;;;;;6222324;22;20318;-82
2021/12/02 05:12:56;;;;;;;2.92;0.95;;;2.20;99.90;;;;;;6222592;22;20015;-82
2021/12/02 05:15:22;;;;;;;3.78;1.10;;;2.30;99.90;;;;;;6247098;22;20034;-87
2021/12/02 05:17:47;;;;;;;5.93;1.88;;;2.40;99.90;;;;;;6221186;22;20237;-86
2021/12/02 05:20:13;;;;;;;5.07;1.63;;;3.00;99.90;;;;;;6222300;22;20034;-81
2021/12/02 05:22:39;;;;;;;3.75;1.00;;;3.10;99.90;;;;;;6221287;22;20016;-83
2021/12/02 05:25:26;;;;;;;3.03;0.90;;;2.30;99.90;;;;;;6221436;22;20016;-83
2021/12/02 05:27:52;;;;;;;3.40;1.08;;;2.30;99.90;;;;;;6221575;22;20082;-83
2021/12/02 05:30:17;;;;;;;3.80;0.60;;;2.30;99.90;;;;;;6274561;22;20758;-88
2021/12/02 05:32:43;;;;;;;5.68;0.90;;;2.20;99.90;;;;;;6275121;22;20015;-86
2021/12/02 05:35:09;;;;;;;7.82;0.70;;;2.30;99.90;;;;;;6274994;22;20012;-82
2021/12/02 05:37:34;;;;;;;5.47;0.70;;;2.20;99.90;;;;;;6220367;22;20019;-85
2021/12/02 05:40:00;;;;;;;5.80;0.85;;;2.10;99.90;;;;;;6222884;22;20012;-81
2021/12/02 05:42:26;;;;;;;2.42;0.50;;;2.50;99.90;;;;;;6222219;22;20016;-91
2021/12/02 05:44:53;;;;;;;3.40;0.47;;;2.00;99.90;;;;;;6222015;22;20016;-87
2021/12/02 05:47:19;;;;;;;2.28;0.55;;;2.30;99.90;;;;;;6222423;22;20008;-89
2021/12/02 05:49:44;;;;;;;4.70;0.80;;;2.50;99.90;;;;;;6221846;22;20019;-82
2021/12/02 05:52:10;;;;;;;3.13;0.98;;;2.70;99.90;;;;;;6220767;22;20008;-84
2021/12/02 05:54:36;;;;;;;3.70;0.85;;;2.10;99.90;;;;;;6246017;22;20046;-86
2021/12/02 05:57:02;;;;;;;9.88;0.80;;;1.80;99.90;;;;;;6246617;22;20110;-88
2021/12/02 05:59:28;;;;;;;3.38;0.60;;;1.70;99.90;;;;;;6221064;22;20489;-84
2021/12/02 06:01:53;;;;;;;7.10;0.70;;;1.80;99.90;;;;;;6274422;22;20058;-86
2021/12/02 06:04:19;;;;;;;8.43;1.30;;;2.30;99.90;;;;;;6247647;22;20015;-83
2021/12/02 06:06:45;;;;;;;2.75;0.70;;;1.80;99.90;;;;;;6222105;22;20082;-85
2021/12/02 06:09:10;;;;;;;6.60;0.50;;;2.50;99.90;;;;;;6247325;22;20126;-83
2021/12/02 06:11:36;;;;;;;7.20;0.55;;;1.70;99.90;;;;;;6217442;23;20441;-85
2021/12/02 06:14:03;;;;;;;2.20;0.50;;;1.80;99.90;;;;;;6193069;23;20016;-82
2021/12/02 06:16:29;;;;;;;2.92;0.60;;;1.80;99.90;;;;;;6217429;23;20082;-85
2021/12/02 06:18:55;;;;;;;1.95;0.50;;;1.80;99.90;;;;;;6242507;23;20034;-88
2021/12/02 06:21:20;;;;;;;2.75;0.60;;;2.60;99.90;;;;;;6239559;23;20495;-85
2021/12/02 06:24:05;;;;;;;7.13;0.70;;;1.90;99.90;;;;;;6216637;23;20348;-84
2021/12/02 06:26:32;;;;;;;6.30;0.85;;;1.90;99.90;;;;;;6241315;23;20085;-84
2021/12/02 06:28:58;;;;;;;4.53;0.63;;;1.90;99.90;;;;;;6216970;23;20062;-83
2021/12/02 06:31:24;;;;;;;4.75;0.50;;;2.60;99.90;;;;;;6241463;23;20008;-82
2021/12/02 06:33:50;;;;;;;4.07;0.82;;;1.90;99.90;;;;;;6243141;23;20012;-85
2021/12/02 06:36:16;;;;;;;3.90;0.50;;;1.90;99.90;;;;;;6242793;23;20107;-85
2021/12/02 06:38:42;;;;;;;3.92;0.60;;;1.90;99.90;;;;;;6241565;23;20024;-85
2021/12/02 06:41:08;;;;;;;9.32;1.50;;;2.00;99.90;;;;;;6216042;23;20024;-80
2021/12/02 06:43:34;;;;;;;3.67;0.95;;;2.00;99.90;;;;;;6240023;23;20035;-77
2021/12/02 06:45:59;;;;;;;5.30;0.60;;;2.10;99.90;;;;;;6239830;23;20127;-80
2021/12/02 06:48:25;;;;;;;5.82;0.80;;;2.40;99.90;;;;;;6239763;23;20095;-80
2021/12/02 06:50:51;;;;;;;5.00;0.70;;;2.30;99.90;;;;;;6236134;23;20392;-81
2021/12/02 06:53:17;;;;;;;7.78;0.70;;;2.30;99.90;;;;;;6236100;23;20015;-81
2021/12/02 06:55:44;;;;;;;1.80;0.32;;;2.20;99.90;;;;;;6238755;23;20016;-81
2021/12/02 06:58:10;;;;;;;4.43;0.43;;;2.20;99.90;;;;;;6235925;23;20016;-81
2021/12/02 07:00:35;;;;;;;6.20;0.80;;;2.20;99.90;;;;;;6211680;23;20027;-80
2021/12/02 07:03:01;;;;;;;5.25;0.60;;;2.10;99.90;;;;;;6236796;23;20015;-81
2021/12/02 07:05:29;;;;;;;5.28;0.70;;;2.50;99.90;;;;;;6210800;23;20040;-81
2021/12/02 07:07:57;;;;;;;5.68;0.60;;;2.10;99.90;;;;;;6210495;23;20016;-80
2021/12/02 07:10:25;;;;;;;3.65;0.73;;;2.00;99.90;;;;;;6215870;23;20340;-79
2021/12/02 07:12:55;;;;;;;2.90;0.90;;;2.00;99.90;;;;;;6239149;23;20093;-82
2021/12/02 07:15:34;;;;;;;4.72;0.52;;;1.90;99.90;;;;;;6242150;23;20054;-80
2021/12/02 07:18:01;;;;;;;2.95;0.57;;;1.90;99.90;;;;;;6241966;23;20043;-81
2021/12/02 07:20:35;;;;;;;5.93;0.60;;;1.90;99.90;;;;;;6216065;23;20016;-82
2021/12/02 07:23:02;;;;;;;5.50;0.80;;;1.80;99.90;;;;;;6239536;23;20024;-86
2021/12/02 07:25:28;;;;;;;2.47;0.73;;;1.80;99.90;;;;;;6241035;23;20050;-78
2021/12/02 07:27:54;;;;;;;3.35;0.47;;;1.80;99.90;;;;;;6189326;23;20016;-80
2021/12/02 07:30:20;;;;;;;3.13;0.50;;;1.80;99.90;;;;;;6239272;23;20012;-84
2021/12/02 07:32:53;;;;;;;6.72;0.68;;;1.80;99.90;;;;;;6240683;23;20038;-85
2021/12/02 07:35:19;;;;;;;10.98;0.70;;;1.80;99.90;;;;;;6239102;23;20016;-85
2021/12/02 07:37:48;;;;;;;8.10;0.80;;;1.80;99.90;;;;;;6213979;23;20024;-84
2021/12/02 07:40:15;;;;;;;4.15;0.60;;;1.80;99.90;;;;;;6187111;23;20016;-82
2021/12/02 07:42:45;;;;;;;7.25;0.80;;;1.80;99.90;;;;;;6213307;23;20035;-83
2021/12/02 07:45:15;;;;;;;2.35;1.08;;;1.90;99.90;;;;;;6240708;23;20012;-85
2021/12/02 07:47:42;;;;;;;5.60;1.17;;;1.90;99.90;;;;;;6213495;23;20012;-83
2021/12/02 07:50:10;;;;;;;3.50;1.75;;;1.90;99.90;;;;;;6213544;23;20099;-83
2021/12/02 07:52:44;;;;;;;4.57;1.80;;;1.80;99.90;;;;;;6211126;23;20012;-85
2021/12/02 07:55:13;;;;;;;6.07;2.10;;;1.80;99.90;;;;;;6213452;23;20028;-83
2021/12/02 07:57:42;;;;;;;5.20;2.08;;;1.80;99.90;;;;;;6239981;23;20020;-82
2021/12/02 08:00:08;;;;;;;4.28;2.25;;;1.80;99.90;;;;;;6213187;23;20105;-84
2021/12/02 08:02:36;;;;;;;6.95;2.40;;;1.80;99.90;;;;;;6238919;23;20069;-83
2021/12/02 08:05:02;;;;;;;8.98;2.55;;;1.80;99.90;;;;;;6217206;23;20020;-88
2021/12/02 08:07:28;;;;;;;6.93;2.78;;;1.80;99.90;;;;;;6215977;23;20139;-82
2021/12/02 08:09:54;;;;;;;9.13;3.15;;;2.10;99.90;;;;;;6239312;23;20066;-80
2021/12/02 08:12:19;;;;;;;8.00;3.05;;;1.80;99.90;;;;;;6239096;23;20012;-81
2021/12/02 08:14:45;;;;;;;6.25;3.10;;;1.90;99.90;;;;;;6237713;23;20420;-83
2021/12/02 08:17:11;;;;;;;7.78;2.55;;;1.90;99.90;;;;;;6239500;23;20015;-82
2021/12/02 08:19:36;;;;;;;6.78;3.05;;;1.90;99.90;;;;;;6215667;23;20016;-83
2021/12/02 08:22:02;;;;;;;6.75;2.65;;;2.00;99.90;;;;;;6239699;23;20012;-80
2021/12/02 08:24:28;;;;;;;5.25;2.70;;;2.00;99.90;;;;;;6216858;23;20023;-80
2021/12/02 08:26:54;;;;;;;4.53;2.70;;;2.00;99.90;;;;;;6216517;23;20012;-80
2021/12/02 08:29:22;;;;;;;4.20;2.45;;;2.10;99.90;;;;;;6239718;23;20046;-79
2021/12/02 08:31:48;;;;;;;8.35;2.50;;;2.20;99.90;;;;;;6240183;23;20357;-80
2021/12/02 08:34:15;;;;;;;8.52;2.53;;;2.30;99.90;;;;;;6239277;23;20039;-79
2021/12/02 08:36:45;;;;;;;5.13;2.20;;;2.40;99.90;;;;;;6240149;23;20082;-78
2021/12/02 08:39:16;;;;;;;6.72;2.33;;;2.50;99.90;;;;;;6210547;23;20906;-77
2021/12/02 08:41:45;;;;;;;6.75;1.80;;;2.60;99.90;;;;;;6237174;23;20015;-78
2021/12/02 08:44:13;;;;;;;4.75;1.75;;;2.60;99.90;;;;;;6245324;23;20039;-77
2021/12/02 08:46:39;;;;;;;4.85;1.73;;;2.60;99.90;;;;;;6218118;23;20107;-79
2021/12/02 08:49:04;;;;;;;5.30;1.60;;;2.60;99.90;;;;;;6242988;23;20064;-79
2021/12/02 08:51:30;;;;;;;5.90;1.33;;;2.70;99.90;;;;;;6242810;23;20108;-78
2021/12/02 08:54:00;;;;;;;5.85;0.77;;;2.70;99.90;;;;;;6242397;23;20030;-80
2021/12/02 08:56:26;;;;;;;3.72;0.90;;;2.70;99.90;;;;;;6217459;23;20451;-80
2021/12/02 08:58:52;;;;;;;5.00;0.70;;;3.20;99.90;;;;;;6219316;23;20043;-79
2021/12/02 09:01:18;;;;;;;6.90;1.60;;;2.80;99.90;;;;;;6244793;22;20020;-79
2021/12/02 09:03:44;;;;;;;3.38;1.42;;;2.80;99.90;;;;;;6242187;23;20020;-78
2021/12/02 09:06:11;;;;;;;3.35;1.05;;;3.20;99.90;;;;;;6216018;23;20339;-78
2021/12/02 09:08:38;;;;;;;7.82;1.15;;;2.90;99.90;;;;;;6215947;23;20374;-78
2021/12/02 09:11:04;;;;;;;16.17;2.58;;;2.90;99.90;;;;;;6220825;22;20008;-81
2021/12/02 09:13:31;;;;;;;10.80;2.30;;;2.90;99.90;;;;;;6221583;22;20456;-81
2021/12/02 09:15:57;;;;;;;7.32;2.03;;;2.90;99.90;;;;;;6272129;22;20015;-79
2021/12/02 09:18:23;;;;;;;4.78;1.60;;;3.00;99.90;;;;;;6275419;22;20042;-80
2021/12/02 09:20:49;;;;;;;6.40;1.60;;;3.10;99.90;;;;;;6247053;22;20023;-80
2021/12/02 09:23:14;;;;;;;5.20;1.40;;;3.10;99.90;;;;;;6273172;22;20015;-80
2021/12/02 09:25:41;;;;;;;10.00;2.13;;;3.10;99.90;;;;;;6272481;22;20019;-79
2021/12/02 09:28:07;;;;;;;3.67;1.50;;;3.00;99.90;;;;;;6246928;22;20420;-82
2021/12/02 09:30:32;;;;;;;3.80;1.40;;;3.00;99.90;;;;;;6220713;22;20022;-81
2021/12/02 09:32:58;;;;;;;9.55;1.60;;;3.20;99.90;;;;;;6222119;22;20008;-80
2021/12/02 09:35:25;;;;;;;4.65;1.23;;;3.20;99.90;;;;;;6221413;22;20432;-80
2021/12/02 09:37:50;;;;;;;4.55;1.45;;;3.20;99.90;;;;;;6246376;22;20019;-76
2021/12/02 09:40:17;;;;;;;4.20;1.40;;;3.30;99.90;;;;;;6247300;22;20018;-78
2021/12/02 09:42:44;;;;;;;7.18;1.50;;;3.40;99.90;;;;;;6246409;22;20016;-78
2021/12/02 09:45:10;;;;;;;6.80;1.77;;;3.50;99.90;;;;;;6247343;22;20347;-78
2021/12/02 09:47:40;;;;;;;2.53;1.40;;;3.60;99.90;;;;;;6246642;22;20069;-77
2021/12/02 09:50:13;;;;;;;8.88;1.50;;;3.70;99.90;;;;;;6221105;22;20012;-78
2021/12/02 09:52:40;;;;;;;3.85;1.40;;;3.60;99.90;;;;;;6245048;22;20443;-79
2021/12/02 09:57:39;;;;;;;1.83;0.57;;;3.20;99.90;;;;;;6246700;22;20069;-79
2021/12/02 10:00:07;;;;;;;2.65;0.70;;;2.60;99.90;;;;;;6246685;22;20012;-80
2021/12/02 10:02:43;;;;;;;2.92;0.40;;;2.30;99.90;;;;;;6221605;22;20447;-78
2021/12/02 10:05:12;;;;;;;3.13;1.02;;;2.10;99.90;;;;;;6247779;22;20131;-78
2021/12/02 10:07:52;;;;;;;1.75;0.50;;;2.10;99.90;;;;;;6247714;22;20019;-79
2021/12/02 10:13:34;;;;;;;3.40;1.05;;;1.90;99.90;;;;;;6245359;23;20024;-81
2021/12/02 10:16:10;;;;;;;1.33;0.77;;;2.00;99.90;;;;;;6247947;23;20039;-83
2021/12/02 10:18:55;;;;;;;7.00;0.82;;;2.10;99.90;;;;;;6221648;23;20026;-83
2021/12/02 10:21:56;;;;;;;5.75;0.75;;;2.30;99.90;;;;;;6248426;23;20019;-83
2021/12/02 10:24:30;;;;;;;8.60;0.95;;;2.60;99.90;;;;;;6218541;23;20012;-84
2021/12/02 10:30:07;;;;;;;1.85;0.60;;;2.90;99.90;;;;;;6241802;23;20095;-80
2021/12/02 10:32:55;;;;;;;3.42;0.80;;;3.50;99.90;;;;;;6217077;23;20019;-79
2021/12/02 10:35:49;;;;;;;4.00;0.73;;;3.10;99.90;;;;;;6239328;23;20483;-81
2021/12/02 10:38:45;;;;;;;3.97;0.80;;;3.00;99.90;;;;;;6187605;23;20363;-80
2021/12/02 10:41:17;;;;;;;0.57;0.45;;;2.80;99.90;;;;;;6214617;23;20790;-82
2021/12/02 10:44:03;;;;;;;3.22;1.20;;;2.50;99.90;;;;;;6215009;23;20020;-80
2021/12/02 10:46:38;;;;;;;6.35;5.18;;;2.20;99.90;;;;;;6213502;23;20064;-80
2021/12/02 10:52:53;;;;;;;6.40;1.27;;;2.40;99.90;;;;;;6094733;23;20018;-81
2021/12/02 10:55:28;;;;;;;1.63;0.65;;;2.40;99.90;;;;;;6097958;23;20018;-79
2021/12/02 10:58:05;;;;;;;6.05;0.90;;;2.70;99.90;;;;;;6120762;23;20013;-80
2021/12/02 11:05:15;;;;;;;1.55;1.10;;;2.10;99.90;;;;;;6120877;23;20025;-82
2021/12/02 11:08:04;;;;;;;2.97;0.80;;;2.00;99.90;;;;;;6071955;23;20064;-82
2021/12/02 11:10:47;;;;;;;1.67;0.60;;;1.80;99.90;;;;;;6119780;23;20014;-80
2021/12/02 11:13:24;;;;;;;1.42;0.60;;;1.80;99.90;;;;;;6138674;23;20093;-80
2021/12/02 11:15:51;;;;;;;0.77;0.35;;;2.10;99.90;;;;;;6100308;23;20018;-80
2021/12/02 11:18:17;;;;;;;1.45;0.40;;;1.80;99.90;;;;;;6124553;23;20036;-80
2021/12/02 11:20:44;;;;;;;1.45;0.35;;;2.00;99.90;;;;;;6150235;23;20017;-78
2021/12/02 11:23:12;;;;;;;2.17;0.30;;;1.90;99.90;;;;;;6123211;23;20341;-80
2021/12/02 11:25:58;;;;;;;1.58;0.65;;;1.90;99.90;;;;;;6124351;23;20025;-79
2021/12/02 11:28:30;;;;;;;2.40;0.45;;;2.00;99.90;;;;;;6155151;23;20012;-78
2021/12/02 11:30:57;;;;;;;1.55;0.45;;;2.00;99.90;;;;;;6241533;23;20009;-78
2021/12/02 11:33:31;;;;;;;1.70;0.60;;;2.00;99.90;;;;;;6241645;23;20008;-78
2021/12/02 11:35:57;;;;;;;3.08;0.90;;;2.00;99.90;;;;;;6241093;23;20023;-79
2021/12/02 11:38:26;;;;;;;4.15;0.63;;;2.00;99.90;;;;;;6217942;23;20008;-80
2021/12/02 11:40:59;;;;;;;4.50;1.13;;;2.00;99.90;;;;;;6217142;23;20016;-78
2021/12/02 11:43:32;;;;;;;5.22;2.00;;;2.00;99.90;;;;;;6246146;23;20028;-79
2021/12/02 11:46:00;;;;;;;7.32;2.17;;;2.10;99.90;;;;;;6245179;23;20019;-78
2021/12/02 11:48:32;;;;;;;5.65;1.67;;;2.20;99.90;;;;;;6243544;23;20019;-79
2021/12/02 11:51:01;;;;;;;4.10;1.85;;;2.20;99.90;;;;;;6243777;23;20293;-78
2021/12/02 11:53:27;;;;;;;3.78;1.20;;;2.30;99.90;;;;;;6242504;23;20019;-76
2021/12/02 11:56:02;;;;;;;2.65;1.10;;;2.30;99.90;;;;;;6242927;23;20020;-78
2021/12/02 11:58:29;;;;;;;3.45;0.95;;;2.30;99.90;;;;;;6216966;23;20329;-78
2021/12/02 12:00:55;;;;;;;2.60;1.13;;;2.30;99.90;;;;;;6242854;23;20012;-78
2021/12/02 12:03:42;;;;;;;4.93;0.85;;;2.30;99.90;;;;;;6217934;23;20020;-80
2021/12/02 12:06:13;;;;;;;2.78;0.80;;;2.30;99.90;;;;;;6243329;22;20016;-83
2021/12/02 12:08:45;;;;;;;5.78;1.33;;;2.40;99.90;;;;;;6217743;23;20440;-78
2021/12/02 12:11:22;;;;;;;2.92;1.25;;;2.60;99.90;;;;;;6242951;23;20023;-78
2021/12/02 12:14:10;;;;;;;4.18;1.50;;;2.70;99.90;;;;;;6217269;23;20019;-79
2021/12/02 12:16:48;;;;;;;3.00;0.90;;;2.80;99.90;;;;;;6215561;23;20123;-80
2021/12/02 12:19:20;;;;;;;4.07;0.90;;;2.80;99.90;;;;;;6243050;23;20465;-79
2021/12/02 12:21:56;;;;;;;0.50;0.40;;;3.00;99.90;;;;;;6215802;23;20059;-76
2021/12/02 12:24:47;;;;;;;2.30;0.40;;;3.00;99.90;;;;;;6242409;23;20022;-77
2021/12/02 12:27:19;;;;;;;3.85;0.50;;;3.00;99.90;;;;;;6243840;23;20012;-78
2021/12/02 12:30:11;;;;;;;1.70;0.50;;;2.90;99.90;;;;;;6217762;23;20487;-78
2021/12/02 12:35:22;;;;;;;0.68;0.43;;;2.80;99.90;;;;;;6244179;23;20356;-78
2021/12/02 12:37:49;;;;;;;0.95;0.50;;;2.50;99.90;;;;;;6242667;23;20020;-77
2021/12/02 12:40:21;;;;;;;1.17;0.40;;;2.50;99.90;;;;;;6243555;23;20018;-78
2021/12/02 12:42:57;;;;;;;1.08;0.30;;;2.50;99.90;;;;;;6217990;23;20016;-78
2021/12/02 12:45:41;;;;;;;1.15;0.40;;;2.40;99.90;;;;;;6242478;23;20023;-78
2021/12/02 12:48:31;;;;;;;0.55;0.30;;;2.40;99.90;;;;;;6219155;23;20437;-78
2021/12/02 12:51:35;;;;;;;0.90;0.40;;;2.40;99.90;;;;;;6097363;23;20014;-78
2021/12/02 12:54:05;;;;;;;1.95;0.52;;;2.40;99.90;;;;;;6096584;23;20084;-78
2021/12/02 12:56:38;;;;;;;1.08;0.50;;;2.50;99.90;;;;;;6096430;23;20017;-78
2021/12/02 12:59:12;;;;;;;2.97;0.68;;;2.40;99.90;;;;;;6072848;23;20018;-79
2021/12/02 13:01:40;;;;;;;0.60;0.47;;;2.70;99.90;;;;;;6097596;23;20454;-78
2021/12/02 13:04:21;;;;;;;2.45;0.60;;;2.60;99.90;;;;;;6097039;23;20014;-79
2021/12/02 13:06:51;;;;;;;1.48;0.40;;;2.60;99.90;;;;;;6096416;23;20092;-78
2021/12/02 13:09:48;;;;;;;0.77;0.43;;;2.60;99.90;;;;;;6096746;23;20014;-78
2021/12/02 13:12:18;;;;;;;1.00;0.60;;;2.70;99.90;;;;;;6096312;23;20032;-76
2021/12/02 13:14:49;;;;;;;2.15;0.50;;;2.60;99.90;;;;;;6095749;23;20041;-79
2021/12/02 13:17:35;;;;;;;0.45;0.40;;;2.60;99.90;;;;;;6122435;23;20181;-77
2021/12/02 13:20:17;;;;;;;1.45;0.70;;;2.70;99.90;;;;;;6096696;23;20026;-79
2021/12/02 13:22:45;;;;;;;1.65;0.30;;;2.70;99.90;;;;;;6095276;23;20041;-77
2021/12/02 13:25:27;;;;;;;0.40;0.30;;;2.80;99.90;;;;;;6121367;23;20324;-78
2021/12/02 13:27:53;;;;;;;1.83;0.40;;;2.90;99.90;;;;;;6162484;23;20008;-77
2021/12/02 13:30:19;;;;;;;4.03;0.20;;;2.90;99.90;;;;;;6218658;23;20051;-76
2021/12/02 13:32:49;;;;;;;1.45;0.30;;;3.00;99.90;;;;;;6242468;23;20012;-78
2021/12/02 13:35:26;;;;;;;3.10;0.40;;;3.00;99.90;;;;;;6242549;23;20102;-78
2021/12/02 13:38:03;;;;;;;1.27;0.28;;;3.10;99.90;;;;;;6241090;23;20516;-78
2021/12/02 13:40:40;;;;;;;1.90;0.30;;;3.00;99.90;;;;;;6242547;23;20016;-79
2021/12/02 13:43:06;;;;;;;2.17;0.22;;;2.90;99.90;;;;;;6242007;23;20051;-78